Time;durP1;ratioP1;P1;durP2;ratioP2;P2;SDS_P1;SDS_P2;PMS_P1;PMS_P2;Temp;Humidity;BMP_temperature;BMP_pressure;BME280_temperature;BME280_humidity;BME280_pressure;Samples;Min_cycle;Max_cycle;Signal;HPM_P1;HPM_P2
2022/11/13 00:02:34;;;;;;;24.50;19.58;;;7.60;99.90;;;;;;5009911;28;98509;-73
2022/11/13 00:05:20;;;;;;;28.90;21.58;;;7.70;99.90;;;;;;5011193;28;98041;-73
2022/11/13 00:08:05;;;;;;;23.88;19.13;;;7.70;99.90;;;;;;5024146;28;98599;-73
2022/11/13 00:10:51;;;;;;;24.88;19.17;;;7.70;99.90;;;;;;5009949;28;98951;-73
2022/11/13 00:13:37;;;;;;;22.20;19.10;;;7.70;99.90;;;;;;5010232;28;99663;-73
2022/11/13 00:16:22;;;;;;;25.73;20.20;;;7.60;99.90;;;;;;5010954;28;99453;-73
2022/11/13 00:19:07;;;;;;;28.63;20.58;;;7.70;99.90;;;;;;5009062;28;98567;-73
2022/11/13 00:21:55;;;;;;;29.35;20.92;;;7.60;99.90;;;;;;5009407;28;98552;-73
2022/11/13 00:24:41;;;;;;;27.00;20.63;;;7.60;99.90;;;;;;5010127;28;98538;-73
2022/11/13 00:27:29;;;;;;;28.42;19.95;;;7.60;99.90;;;;;;5008877;28;98795;-73
2022/11/13 00:30:15;;;;;;;27.92;20.80;;;7.70;99.90;;;;;;5010148;28;98692;-73
2022/11/13 00:33:03;;;;;;;28.52;21.75;;;7.70;99.90;;;;;;5011489;28;97818;-73
2022/11/13 00:35:49;;;;;;;23.27;19.02;;;7.70;99.90;;;;;;5009323;28;98494;-73
2022/11/13 00:38:34;;;;;;;23.98;19.55;;;7.80;99.90;;;;;;5008730;28;99051;-73
2022/11/13 00:41:20;;;;;;;26.13;19.30;;;7.80;99.90;;;;;;5010523;28;99591;-73
2022/11/13 00:44:06;;;;;;;22.65;18.00;;;7.90;99.90;;;;;;5009274;28;98945;-73
2022/11/13 00:46:51;;;;;;;23.70;18.80;;;7.90;99.90;;;;;;5010287;28;98754;-73
2022/11/13 00:49:37;;;;;;;21.80;18.38;;;7.90;99.90;;;;;;5009293;28;98780;-73
2022/11/13 00:52:22;;;;;;;24.33;18.50;;;8.00;99.90;;;;;;5011383;28;98577;-73
2022/11/13 00:55:08;;;;;;;22.92;18.63;;;8.00;99.90;;;;;;5022774;28;98528;-73
2022/11/13 00:57:53;;;;;;;24.50;18.98;;;8.00;99.90;;;;;;5009453;28;98523;-73
2022/11/13 01:00:41;;;;;;;23.92;19.33;;;8.10;99.90;;;;;;5024068;28;98045;-73
2022/11/13 01:03:26;;;;;;;27.38;20.33;;;8.20;99.90;;;;;;5022906;28;98801;-73
2022/11/13 01:06:25;;;;;;;24.17;19.17;;;8.20;99.90;;;;;;5010768;28;98520;-73
2022/11/13 01:09:11;;;;;;;25.88;17.88;;;8.30;99.90;;;;;;5022644;27;99253;-73
2022/11/13 01:11:56;;;;;;;24.02;19.08;;;8.20;99.90;;;;;;5012633;28;99448;-73
2022/11/13 01:14:42;;;;;;;22.60;18.52;;;8.20;99.90;;;;;;5013559;28;98573;-73
2022/11/13 01:17:27;;;;;;;22.95;19.38;;;8.30;99.90;;;;;;5013888;28;98462;-73
2022/11/13 01:20:13;;;;;;;21.45;17.70;;;8.30;99.90;;;;;;5025803;28;98494;-73
2022/11/13 01:22:59;;;;;;;25.02;18.92;;;8.30;99.90;;;;;;5012358;28;98782;-73
2022/11/13 01:25:44;;;;;;;21.83;17.75;;;8.40;99.90;;;;;;5027045;28;99474;-73
2022/11/13 01:28:30;;;;;;;22.42;17.83;;;8.40;99.90;;;;;;5012382;28;98554;-73
2022/11/13 01:31:18;;;;;;;21.48;17.15;;;8.40;99.90;;;;;;5027653;28;98626;-72
2022/11/13 01:34:04;;;;;;;22.27;17.35;;;8.40;99.90;;;;;;5014163;28;98792;-73
2022/11/13 01:36:49;;;;;;;22.70;18.13;;;8.40;99.90;;;;;;5011734;28;99305;-73
2022/11/13 01:39:35;;;;;;;21.70;17.85;;;8.40;99.90;;;;;;5013382;28;98691;-73
2022/11/13 01:42:21;;;;;;;22.27;16.42;;;8.40;99.90;;;;;;5013247;28;98479;-73
2022/11/13 01:45:44;;;;;;;21.67;18.08;;;8.50;99.90;;;;;;5012337;28;98672;-73
2022/11/13 01:48:41;;;;;;;21.42;17.08;;;8.50;99.90;;;;;;5013611;28;98547;-73
2022/11/13 01:51:35;;;;;;;20.17;15.77;;;8.50;99.90;;;;;;5012663;28;98983;-73
2022/11/13 01:54:42;;;;;;;23.30;17.52;;;8.50;99.90;;;;;;5013591;28;98562;-73
2022/11/13 01:57:28;;;;;;;22.50;17.90;;;8.50;99.90;;;;;;5011987;28;98759;-73
2022/11/13 02:00:14;;;;;;;20.50;17.35;;;8.40;99.90;;;;;;5011457;28;98527;-73
2022/11/13 02:02:59;;;;;;;19.73;16.88;;;8.40;99.90;;;;;;5013239;28;98532;-73
2022/11/13 02:05:45;;;;;;;22.45;17.45;;;8.40;99.90;;;;;;5010508;28;99239;-73
2022/11/13 02:08:31;;;;;;;18.80;16.80;;;8.40;99.90;;;;;;5025371;28;98784;-73
2022/11/13 02:11:17;;;;;;;22.48;17.60;;;8.30;99.90;;;;;;5013133;28;99153;-73
2022/11/13 02:14:04;;;;;;;18.67;16.42;;;8.30;99.90;;;;;;5011807;28;98480;-73
2022/11/13 02:16:54;;;;;;;17.85;15.73;;;8.20;99.90;;;;;;5012405;28;99035;-73
2022/11/13 02:19:44;;;;;;;23.10;17.33;;;8.30;99.90;;;;;;5012075;28;98852;-73
2022/11/13 02:22:48;;;;;;;21.88;17.88;;;8.20;99.90;;;;;;5010872;28;98466;-73
2022/11/13 02:25:34;;;;;;;21.42;16.50;;;8.20;99.90;;;;;;5013559;28;97869;-73
2022/11/13 02:28:19;;;;;;;23.30;18.35;;;8.10;99.90;;;;;;5024086;28;98729;-73
2022/11/13 02:31:10;;;;;;;22.80;17.55;;;8.10;99.90;;;;;;5024526;28;98778;-73
2022/11/13 02:33:55;;;;;;;23.35;17.63;;;8.00;99.90;;;;;;5011687;28;99184;-73
2022/11/13 02:36:40;;;;;;;23.17;19.23;;;8.00;99.90;;;;;;5023958;28;98742;-73
2022/11/13 02:39:26;;;;;;;23.95;19.23;;;7.90;99.90;;;;;;5025315;28;99567;-73
2022/11/13 02:42:11;;;;;;;24.25;18.70;;;7.90;99.90;;;;;;5025621;28;99750;-73
2022/11/13 02:44:57;;;;;;;24.27;19.83;;;7.80;99.90;;;;;;5010081;28;99018;-72
2022/11/13 02:47:42;;;;;;;23.77;19.77;;;7.80;99.90;;;;;;5011558;28;99408;-73
2022/11/13 02:50:27;;;;;;;24.13;18.63;;;7.80;99.90;;;;;;5011376;28;98508;-72
2022/11/13 02:53:13;;;;;;;26.30;19.77;;;7.80;99.90;;;;;;5011959;28;98836;-73
2022/11/13 02:55:59;;;;;;;25.90;19.60;;;7.70;99.90;;;;;;5011169;28;99297;-73
2022/11/13 02:58:44;;;;;;;26.90;19.15;;;7.70;99.90;;;;;;5011633;28;98586;-73
2022/11/13 03:01:30;;;;;;;25.17;19.95;;;7.70;99.90;;;;;;5011542;28;99238;-73
2022/11/13 03:04:15;;;;;;;25.80;18.70;;;7.70;99.90;;;;;;5011131;28;98807;-73
2022/11/13 03:07:00;;;;;;;21.88;17.33;;;7.70;99.90;;;;;;5011771;28;98558;-73
2022/11/13 03:09:46;;;;;;;22.20;17.27;;;7.70;99.90;;;;;;5026155;28;98599;-73
2022/11/13 03:12:32;;;;;;;21.70;18.15;;;7.70;99.90;;;;;;5011237;28;98963;-73
2022/11/13 03:15:18;;;;;;;21.50;17.52;;;7.70;99.90;;;;;;5011838;28;98799;-73
2022/11/13 03:18:07;;;;;;;21.65;17.10;;;7.70;99.90;;;;;;5011317;28;99001;-73
2022/11/13 03:20:52;;;;;;;22.42;17.73;;;7.70;99.90;;;;;;5010117;28;97908;-73
2022/11/13 03:23:41;;;;;;;21.55;17.20;;;7.70;99.90;;;;;;5011896;28;98628;-73
2022/11/13 03:26:29;;;;;;;23.15;18.05;;;7.70;99.90;;;;;;5012137;28;98707;-73
2022/11/13 03:29:14;;;;;;;22.65;17.27;;;7.70;99.90;;;;;;5022856;28;99378;-72
2022/11/13 03:32:01;;;;;;;20.65;17.83;;;7.60;99.90;;;;;;5011187;28;98500;-73
2022/11/13 03:34:47;;;;;;;23.70;17.30;;;7.60;99.90;;;;;;5012696;28;98558;-73
2022/11/13 03:37:32;;;;;;;22.98;17.20;;;7.60;99.90;;;;;;5010487;28;98729;-73
2022/11/13 03:40:18;;;;;;;22.40;17.33;;;7.60;99.90;;;;;;5010954;28;98555;-73
2022/11/13 03:43:03;;;;;;;22.25;16.88;;;7.60;99.90;;;;;;5025361;28;98709;-73
2022/11/13 03:45:49;;;;;;;23.92;18.27;;;7.50;99.90;;;;;;5010435;28;98518;-73
2022/11/13 03:48:34;;;;;;;24.50;17.98;;;7.50;99.90;;;;;;5024606;28;98042;-73
2022/11/13 03:51:20;;;;;;;21.83;18.58;;;7.50;99.90;;;;;;5011650;28;98545;-73
2022/11/13 03:54:06;;;;;;;22.40;17.73;;;7.50;99.90;;;;;;5009062;28;98640;-73
2022/11/13 03:56:51;;;;;;;24.10;18.00;;;7.50;99.90;;;;;;5010795;28;99224;-73
2022/11/13 03:59:36;;;;;;;21.95;18.05;;;7.50;99.90;;;;;;5010416;28;98795;-73
2022/11/13 04:02:22;;;;;;;24.15;17.10;;;7.40;99.90;;;;;;5009255;28;99509;-73
2022/11/13 04:05:08;;;;;;;21.35;18.20;;;7.40;99.90;;;;;;5024164;28;99029;-73
2022/11/13 04:07:53;;;;;;;22.30;17.33;;;7.40;99.90;;;;;;5011929;28;98557;-73
2022/11/13 04:10:39;;;;;;;22.83;17.20;;;7.50;99.90;;;;;;5009782;28;98973;-73
2022/11/13 04:13:25;;;;;;;19.40;15.98;;;7.50;99.90;;;;;;5010511;28;98857;-73
2022/11/13 04:16:10;;;;;;;20.67;16.75;;;7.50;99.90;;;;;;5011514;28;97687;-73
2022/11/13 04:18:55;;;;;;;25.83;17.73;;;7.50;99.90;;;;;;5008913;28;98439;-73
2022/11/13 04:21:41;;;;;;;24.25;18.02;;;7.50;99.90;;;;;;5010624;28;98726;-73
2022/11/13 04:24:26;;;;;;;25.10;16.80;;;7.50;99.90;;;;;;5009860;28;99318;-73
2022/11/13 04:27:12;;;;;;;23.13;17.20;;;7.50;99.90;;;;;;5009330;28;99182;-73
2022/11/13 04:29:58;;;;;;;24.10;18.05;;;7.50;99.90;;;;;;5010293;28;98680;-73
2022/11/13 04:32:43;;;;;;;21.05;16.45;;;7.50;99.90;;;;;;5011060;28;98665;-73
2022/11/13 04:35:28;;;;;;;21.02;16.27;;;7.50;99.90;;;;;;5009234;28;99169;-73
2022/11/13 04:38:14;;;;;;;22.85;17.33;;;7.50;99.90;;;;;;5023198;28;98644;-73
2022/11/13 04:44:04;;;;;;;23.13;16.07;;;7.40;99.90;;;;;;5010418;28;97908;-73
2022/11/13 04:46:49;;;;;;;21.00;16.55;;;7.40;99.90;;;;;;5026807;28;98674;-73
2022/11/13 04:49:35;;;;;;;21.63;16.55;;;7.40;99.90;;;;;;5015187;28;98490;-73
2022/11/13 04:52:20;;;;;;;20.67;16.42;;;7.40;99.90;;;;;;5012652;28;99280;-73
2022/11/13 04:55:07;;;;;;;19.48;16.02;;;7.40;99.90;;;;;;5013306;28;98814;-73
2022/11/13 04:57:54;;;;;;;22.48;17.55;;;7.40;99.90;;;;;;5013456;28;98519;-73
2022/11/13 05:00:39;;;;;;;22.02;16.70;;;7.30;99.90;;;;;;5013048;28;98507;-73
2022/11/13 05:03:24;;;;;;;20.83;16.15;;;7.30;99.90;;;;;;5013458;28;98431;-73
2022/11/13 05:06:10;;;;;;;21.73;16.70;;;7.20;99.90;;;;;;5026725;28;98808;-73
2022/11/13 05:08:56;;;;;;;20.77;15.82;;;7.20;99.90;;;;;;5012498;28;98533;-73
2022/11/13 05:11:41;;;;;;;20.98;16.02;;;7.10;99.90;;;;;;5014068;28;97697;-73
2022/11/13 05:14:27;;;;;;;21.23;15.32;;;7.00;99.90;;;;;;5014326;28;98380;-73
2022/11/13 05:17:13;;;;;;;28.83;17.90;;;7.00;99.90;;;;;;5011017;28;98658;-73
2022/11/13 05:19:58;;;;;;;18.92;15.18;;;6.90;99.90;;;;;;5012308;28;99246;-73
2022/11/13 05:22:43;;;;;;;19.45;15.45;;;6.80;99.90;;;;;;5014136;28;98547;-73
2022/11/13 05:25:30;;;;;;;23.42;15.45;;;6.70;99.90;;;;;;5024916;28;98530;-73
2022/11/13 05:28:15;;;;;;;19.83;15.88;;;6.60;99.90;;;;;;5012875;28;98751;-73
2022/11/13 05:31:15;;;;;;;18.30;14.95;;;6.60;99.90;;;;;;5013787;28;98585;-72
2022/11/13 05:34:03;;;;;;;18.55;15.25;;;6.60;99.90;;;;;;5011770;28;98614;-73
2022/11/13 05:36:50;;;;;;;20.50;15.68;;;6.50;99.90;;;;;;5012564;28;98552;-72
2022/11/13 05:39:35;;;;;;;22.42;16.40;;;6.40;99.90;;;;;;5013950;28;98020;-73
2022/11/13 05:42:21;;;;;;;20.67;15.13;;;6.30;99.90;;;;;;5011761;28;98565;-73
2022/11/13 05:45:07;;;;;;;20.33;16.30;;;6.30;99.90;;;;;;5013136;28;98531;-73
2022/11/13 05:47:53;;;;;;;26.08;18.48;;;6.30;99.90;;;;;;5026736;28;99287;-73
2022/11/13 05:50:38;;;;;;;23.65;17.45;;;6.30;99.90;;;;;;5011742;28;98591;-73
2022/11/13 05:53:23;;;;;;;23.55;18.27;;;6.20;99.90;;;;;;5025691;28;98559;-73
2022/11/13 05:56:13;;;;;;;26.30;17.98;;;6.20;99.90;;;;;;5012773;28;98518;-73
2022/11/13 05:58:59;;;;;;;24.45;17.50;;;6.20;99.90;;;;;;5012283;28;98484;-73
2022/11/13 06:01:44;;;;;;;23.67;16.92;;;6.30;99.90;;;;;;5012336;28;98719;-73
2022/11/13 06:04:30;;;;;;;24.20;16.38;;;6.30;99.90;;;;;;5012053;28;98605;-72
2022/11/13 06:07:15;;;;;;;23.27;15.75;;;6.30;99.90;;;;;;5012061;28;97872;-73
2022/11/13 06:10:01;;;;;;;19.35;15.05;;;6.30;99.90;;;;;;5011674;28;99080;-73
2022/11/13 06:12:46;;;;;;;21.27;16.27;;;6.20;99.90;;;;;;5013450;28;99139;-73
2022/11/13 06:15:31;;;;;;;23.38;16.88;;;6.20;99.90;;;;;;5023377;28;99332;-73
2022/11/13 06:18:23;;;;;;;20.23;16.05;;;6.10;99.90;;;;;;5025530;28;98629;-73
2022/11/13 06:21:13;;;;;;;22.00;15.73;;;6.10;99.90;;;;;;5013483;28;98563;-73
2022/11/13 06:23:59;;;;;;;18.80;15.45;;;6.00;99.90;;;;;;5011302;28;98684;-73
2022/11/13 06:26:45;;;;;;;21.75;15.50;;;6.00;99.90;;;;;;5011607;28;98605;-72
2022/11/13 06:29:30;;;;;;;22.13;16.98;;;6.00;99.90;;;;;;5013509;28;99093;-73
2022/11/13 06:32:15;;;;;;;20.30;15.27;;;6.00;99.90;;;;;;5011603;28;98902;-73
2022/11/13 06:35:01;;;;;;;20.02;14.25;;;6.00;99.90;;;;;;5012420;28;98143;-73
2022/11/13 06:37:47;;;;;;;21.98;15.45;;;6.00;99.90;;;;;;5011845;28;99040;-73
2022/11/13 06:40:32;;;;;;;17.50;15.13;;;6.00;99.90;;;;;;5023921;28;99089;-73
2022/11/13 06:43:17;;;;;;;21.00;15.55;;;6.00;99.90;;;;;;5010760;28;99523;-73
2022/11/13 06:46:06;;;;;;;21.80;15.18;;;6.00;99.90;;;;;;5011515;28;98952;-73
2022/11/13 06:48:52;;;;;;;16.73;14.32;;;6.00;99.90;;;;;;5010883;28;98560;-73
2022/11/13 06:51:37;;;;;;;16.67;13.38;;;6.00;99.90;;;;;;5011736;28;98504;-72
2022/11/13 06:54:22;;;;;;;16.23;14.38;;;6.00;99.90;;;;;;5011777;28;98512;-73
2022/11/13 06:57:08;;;;;;;21.15;15.30;;;5.90;99.90;;;;;;5010594;28;98725;-72
2022/11/13 06:59:53;;;;;;;19.80;15.40;;;6.00;99.90;;;;;;5011063;28;98602;-73
2022/11/13 07:02:39;;;;;;;18.75;14.82;;;6.00;99.90;;;;;;5011423;28;97750;-73
2022/11/13 07:05:24;;;;;;;20.52;15.15;;;5.90;99.90;;;;;;5009413;28;98465;-73
2022/11/13 07:08:11;;;;;;;21.35;16.17;;;5.90;99.90;;;;;;5009128;28;98764;-72
2022/11/13 07:10:57;;;;;;;21.77;15.73;;;6.00;99.90;;;;;;5011602;28;99267;-73
2022/11/13 07:13:42;;;;;;;22.55;15.60;;;6.00;99.90;;;;;;5010550;28;99025;-73
2022/11/13 07:16:28;;;;;;;18.35;14.55;;;6.00;99.90;;;;;;5024132;28;98563;-73
2022/11/13 07:19:28;;;;;;;19.77;14.15;;;6.00;99.90;;;;;;5011980;28;98762;-73
2022/11/13 07:22:14;;;;;;;20.33;15.55;;;6.00;99.90;;;;;;5010357;28;98564;-72
2022/11/13 07:25:00;;;;;;;18.40;14.05;;;6.00;99.90;;;;;;5011368;28;98560;-73
2022/11/13 07:27:45;;;;;;;17.00;13.88;;;6.00;99.90;;;;;;5011349;28;98466;-73
2022/11/13 07:30:31;;;;;;;19.60;14.68;;;6.00;99.90;;;;;;5010407;28;98257;-72
2022/11/13 07:33:16;;;;;;;21.85;15.68;;;6.00;99.90;;;;;;5010985;28;98467;-73
2022/11/13 07:36:02;;;;;;;21.45;16.52;;;6.00;99.90;;;;;;5012265;28;98451;-73
2022/11/13 07:38:47;;;;;;;20.65;14.85;;;6.20;99.90;;;;;;5009764;28;99126;-73
2022/11/13 07:41:32;;;;;;;19.70;15.20;;;6.20;99.90;;;;;;5010304;28;98524;-73
2022/11/13 07:44:18;;;;;;;18.25;15.07;;;6.30;99.90;;;;;;5011207;28;98928;-73
2022/11/13 07:47:24;;;;;;;15.57;13.10;;;6.40;99.90;;;;;;5009740;28;98592;-73
2022/11/13 07:50:09;;;;;;;19.45;13.88;;;6.40;99.90;;;;;;5011089;28;98520;-73
2022/11/13 07:53:02;;;;;;;17.05;14.15;;;6.40;99.90;;;;;;5011766;28;98706;-73
2022/11/13 07:55:47;;;;;;;17.63;14.13;;;6.40;99.90;;;;;;5009483;28;98492;-73
2022/11/13 07:58:33;;;;;;;17.20;12.77;;;6.50;99.90;;;;;;5011545;28;97665;-73
2022/11/13 08:01:18;;;;;;;19.05;14.88;;;6.50;99.90;;;;;;5011804;28;98472;-73
2022/11/13 08:04:04;;;;;;;15.20;12.88;;;6.50;99.90;;;;;;5011565;28;98750;-73
2022/11/13 08:06:49;;;;;;;16.42;13.82;;;6.50;99.90;;;;;;5010315;28;99223;-73
2022/11/13 08:09:35;;;;;;;17.73;14.23;;;6.60;99.90;;;;;;5012039;28;98556;-73
2022/11/13 08:12:20;;;;;;;17.55;13.70;;;6.60;99.90;;;;;;5009053;28;98561;-73
2022/11/13 08:15:06;;;;;;;18.90;14.13;;;6.60;99.90;;;;;;5010560;28;98694;-73
2022/11/13 08:17:58;;;;;;;17.35;14.35;;;6.60;99.90;;;;;;5011412;28;98562;-73
2022/11/13 08:20:44;;;;;;;14.93;13.30;;;6.70;99.90;;;;;;5012683;28;98806;-73
2022/11/13 08:23:30;;;;;;;18.13;14.40;;;6.70;99.90;;;;;;5013692;28;98566;-73
2022/11/13 08:26:17;;;;;;;17.42;13.23;;;6.70;99.90;;;;;;5015066;28;98037;-73
2022/11/13 08:29:03;;;;;;;16.73;13.90;;;6.80;99.90;;;;;;5012992;28;98491;-73
2022/11/13 08:31:48;;;;;;;16.15;14.00;;;6.80;99.90;;;;;;5014332;28;98477;-73
2022/11/13 08:34:36;;;;;;;15.63;13.93;;;6.90;99.90;;;;;;5014616;28;99275;-73
2022/11/13 08:37:21;;;;;;;17.00;14.60;;;6.90;99.90;;;;;;5013165;28;99140;-73
2022/11/13 08:40:07;;;;;;;17.55;14.75;;;7.00;99.90;;;;;;5013942;28;99329;-73
2022/11/13 08:42:58;;;;;;;17.50;15.68;;;7.10;99.90;;;;;;5014024;28;98875;-73
2022/11/13 08:45:47;;;;;;;18.13;14.48;;;7.20;99.90;;;;;;5012204;28;99104;-73
2022/11/13 08:48:32;;;;;;;19.30;15.40;;;7.30;99.90;;;;;;5026773;28;98783;-72
2022/11/13 08:51:18;;;;;;;17.13;14.00;;;7.40;99.90;;;;;;5014817;28;98542;-73
2022/11/13 08:54:03;;;;;;;18.50;14.07;;;7.50;99.90;;;;;;5013409;28;97683;-73
2022/11/13 08:56:49;;;;;;;15.90;13.70;;;7.60;99.90;;;;;;5013517;28;98460;-73
2022/11/13 08:59:40;;;;;;;15.50;13.07;;;7.70;99.90;;;;;;5013731;28;98735;-73
2022/11/13 09:02:25;;;;;;;16.25;13.52;;;7.90;99.90;;;;;;5011608;28;99256;-72
2022/11/13 09:05:11;;;;;;;13.75;12.35;;;7.90;99.90;;;;;;5012810;28;98477;-73
2022/11/13 09:07:58;;;;;;;16.58;13.70;;;8.10;99.90;;;;;;5014794;28;98442;-72
2022/11/13 09:10:44;;;;;;;15.43;13.45;;;8.20;99.90;;;;;;5012620;28;99112;-72
2022/11/13 09:13:31;;;;;;;15.38;12.68;;;8.30;99.90;;;;;;5012728;28;98709;-72
2022/11/13 09:16:16;;;;;;;16.52;12.68;;;8.40;99.90;;;;;;5014414;28;98707;-72
2022/11/13 09:19:03;;;;;;;15.93;13.57;;;8.50;99.90;;;;;;5025542;28;99406;-72
2022/11/13 09:21:50;;;;;;;15.00;13.30;;;8.60;99.90;;;;;;5013148;28;98027;-72
2022/11/13 09:24:36;;;;;;;17.40;13.88;;;8.70;99.90;;;;;;5014725;28;98933;-72
2022/11/13 09:27:21;;;;;;;13.65;12.27;;;8.80;99.90;;;;;;5012678;28;98874;-72
2022/11/13 09:30:07;;;;;;;14.07;12.60;;;8.80;99.90;;;;;;5011183;28;99236;-73
2022/11/13 09:32:54;;;;;;;15.10;12.38;;;9.00;99.90;;;;;;5013756;28;99346;-73
2022/11/13 09:35:39;;;;;;;14.40;12.90;;;9.00;99.90;;;;;;5011378;28;99040;-72
2022/11/13 09:38:25;;;;;;;13.10;11.20;;;9.10;99.90;;;;;;5013419;28;99082;-72
2022/11/13 09:41:16;;;;;;;13.50;12.10;;;9.20;99.90;;;;;;5013925;28;98985;-72
2022/11/13 09:44:04;;;;;;;13.35;12.05;;;9.30;99.90;;;;;;5011691;28;98718;-73
2022/11/13 09:47:00;;;;;;;15.40;11.90;;;9.40;99.90;;;;;;5012568;28;98571;-73
2022/11/13 09:49:53;;;;;;;12.73;11.43;;;9.50;99.90;;;;;;5014730;28;97824;-72
2022/11/13 09:52:41;;;;;;;14.60;12.38;;;9.60;99.90;;;;;;5012742;28;98601;-72
2022/11/13 09:55:33;;;;;;;12.90;11.45;;;9.70;99.90;;;;;;5013147;28;98706;-72
2022/11/13 09:58:32;;;;;;;12.73;11.52;;;9.70;99.90;;;;;;5010832;28;99193;-72
2022/11/13 10:01:26;;;;;;;12.57;11.38;;;9.80;99.90;;;;;;5012798;28;98493;-72
2022/11/13 10:04:15;;;;;;;12.45;11.05;;;9.80;99.90;;;;;;5012257;28;98806;-72
2022/11/13 10:07:36;;;;;;;12.93;11.63;;;9.70;99.90;;;;;;5011056;28;98770;-72
2022/11/13 10:10:45;;;;;;;13.60;11.52;;;9.80;99.90;;;;;;5013308;28;98571;-72
2022/11/13 10:13:51;;;;;;;12.07;10.75;;;9.80;99.90;;;;;;5012512;28;98595;-72
2022/11/13 10:16:44;;;;;;;12.52;11.23;;;9.90;99.90;;;;;;5013641;28;98533;-72
2022/11/13 10:19:56;;;;;;;12.25;10.45;;;9.90;99.90;;;;;;5012007;28;98034;-72
2022/11/13 10:22:49;;;;;;;12.73;10.65;;;10.00;99.90;;;;;;5012626;28;98519;-72
2022/11/13 10:25:36;;;;;;;13.87;11.60;;;10.00;99.90;;;;;;5011554;28;98892;-72
2022/11/13 10:28:26;;;;;;;11.95;10.75;;;10.00;99.90;;;;;;5011023;28;99259;-72
2022/11/13 10:31:46;;;;;;;12.10;10.90;;;10.20;99.90;;;;;;5012423;28;98882;-73
2022/11/13 10:34:32;;;;;;;12.55;11.40;;;10.40;99.90;;;;;;5010573;28;99256;-72
2022/11/13 10:37:29;;;;;;;11.65;10.55;;;10.60;99.90;;;;;;5011721;28;98502;-72
2022/11/13 10:40:36;;;;;;;11.85;10.55;;;10.70;99.90;;;;;;5011021;28;98522;-72
2022/11/13 10:43:25;;;;;;;11.98;10.40;;;10.80;99.90;;;;;;5024395;28;98694;-72
2022/11/13 10:46:26;;;;;;;11.75;10.63;;;10.90;99.90;;;;;;5012892;28;98679;-72
2022/11/13 10:49:18;;;;;;;11.90;10.73;;;11.10;99.90;;;;;;5012282;28;97831;-72
2022/11/13 10:52:17;;;;;;;11.40;9.73;;;11.20;99.90;;;;;;5012866;28;98479;-72
2022/11/13 10:55:15;;;;;;;11.23;10.02;;;11.30;99.90;;;;;;5010550;28;98752;-72
2022/11/13 10:58:02;;;;;;;13.02;10.48;;;11.40;99.90;;;;;;5011867;28;99151;-72
2022/11/13 11:00:48;;;;;;;11.48;10.43;;;11.50;99.90;;;;;;5010748;28;98566;-72
2022/11/13 11:03:34;;;;;;;13.57;9.77;;;11.60;99.90;;;;;;5025300;28;98572;-72
2022/11/13 11:06:29;;;;;;;10.68;9.57;;;11.80;99.90;;;;;;5012441;28;99101;-72
2022/11/13 11:09:37;;;;;;;;;;;11.90;99.90;;;;;;5011826;28;98458;-72
2022/11/13 11:12:24;;;;;;;10.07;9.07;;;11.90;99.90;;;;;;5012646;28;98497;-72
2022/11/13 11:15:20;;;;;;;11.27;10.07;;;11.90;99.90;;;;;;5013157;28;99178;-72
2022/11/13 11:18:25;;;;;;;11.15;10.02;;;12.10;99.90;;;;;;5011297;28;98531;-72
2022/11/13 11:21:39;;;;;;;11.05;9.95;;;12.10;99.90;;;;;;5012114;28;98541;-72
2022/11/13 11:24:32;;;;;;;10.85;9.75;;;12.20;99.90;;;;;;5011733;28;98527;-72
2022/11/13 11:27:27;;;;;;;11.18;10.00;;;12.20;99.90;;;;;;5012114;28;99132;-72
2022/11/13 11:30:18;;;;;;;10.73;9.63;;;12.30;99.90;;;;;;5009032;28;98699;-72
2022/11/13 11:33:21;;;;;;;10.43;9.27;;;12.30;99.90;;;;;;5011966;28;98573;-73
2022/11/13 11:36:20;;;;;;;10.30;9.30;;;12.40;99.90;;;;;;5013328;28;98838;-72
2022/11/13 11:39:08;;;;;;;11.68;9.57;;;12.50;99.90;;;;;;5010798;28;98617;-73
2022/11/13 11:42:17;;;;;;;10.63;9.60;;;12.50;99.90;;;;;;5012192;28;98960;-72
2022/11/13 11:45:08;;;;;;;10.35;9.35;;;12.60;99.90;;;;;;5009787;28;98568;-73
2022/11/13 11:47:53;;;;;;;12.48;9.63;;;12.70;99.90;;;;;;5012799;28;97898;-72
2022/11/13 11:50:49;;;;;;;10.68;9.68;;;12.80;99.90;;;;;;5012796;28;99339;-72
2022/11/13 11:53:53;;;;;;;9.85;8.93;;;13.00;99.90;;;;;;5010924;28;98742;-72
2022/11/13 11:56:52;;;;;;;10.77;9.55;;;13.10;99.90;;;;;;5011675;28;100326;-72
2022/11/13 11:59:43;;;;;;;10.10;9.10;;;13.10;99.90;;;;;;5009826;28;98610;-72
2022/11/13 12:02:35;;;;;;;10.43;9.32;;;13.10;99.90;;;;;;5011321;28;99337;-72
2022/11/13 12:05:42;;;;;;;9.68;8.77;;;13.20;99.90;;;;;;5008971;28;99096;-72
2022/11/13 12:08:35;;;;;;;9.10;8.27;;;13.20;99.90;;;;;;5010044;28;98494;-72
2022/11/13 12:11:33;;;;;;;10.02;9.05;;;13.30;99.90;;;;;;5012057;28;98549;-72
2022/11/13 12:14:32;;;;;;;9.90;8.98;;;13.40;99.90;;;;;;5009869;28;98545;-72
2022/11/13 12:17:46;;;;;;;9.27;8.38;;;13.40;99.90;;;;;;5012165;28;98146;-73
2022/11/13 12:20:43;;;;;;;9.70;8.80;;;13.50;99.90;;;;;;5010432;28;98573;-73
2022/11/13 12:23:48;;;;;;;9.68;8.82;;;13.50;99.90;;;;;;5011651;28;98459;-72
2022/11/13 12:26:38;;;;;;;9.93;9.02;;;13.60;99.90;;;;;;5009097;28;99390;-73
2022/11/13 12:29:46;;;;;;;10.15;9.10;;;13.50;99.90;;;;;;5010670;28;98782;-72
2022/11/13 12:32:56;;;;;;;11.32;9.48;;;13.70;99.90;;;;;;5009253;28;98510;-72
2022/11/13 12:35:46;;;;;;;10.25;9.10;;;13.70;99.90;;;;;;5011250;28;98424;-73
2022/11/13 12:39:01;;;;;;;10.98;9.95;;;13.70;99.90;;;;;;5011220;28;98565;-72
2022/11/13 12:42:23;;;;;;;9.85;8.85;;;13.80;99.90;;;;;;5009842;28;99224;-73
2022/11/13 12:45:29;;;;;;;9.40;8.57;;;13.80;99.90;;;;;;5010447;28;100178;-72
2022/11/13 12:48:15;;;;;;;9.77;8.85;;;13.80;99.90;;;;;;5010748;28;97728;-73
2022/11/13 12:51:03;;;;;;;10.85;9.75;;;13.90;99.90;;;;;;5010827;28;98540;-73
2022/11/13 12:53:50;;;;;;;9.60;8.70;;;13.90;99.90;;;;;;5010063;28;98790;-72
2022/11/13 12:56:36;;;;;;;10.20;9.30;;;13.90;99.90;;;;;;5009470;28;99765;-72
2022/11/13 12:59:21;;;;;;;9.90;9.00;;;13.90;99.90;;;;;;5011800;28;99145;-73
2022/11/13 13:02:46;;;;;;;10.68;9.63;;;13.90;99.90;;;;;;5010016;28;98573;-72
2022/11/13 13:05:53;;;;;;;10.15;9.25;;;14.00;99.90;;;;;;5012695;28;98739;-72
2022/11/13 13:09:07;;;;;;;9.93;8.93;;;14.00;99.90;;;;;;5013527;28;98517;-72
2022/11/13 13:12:06;;;;;;;10.75;9.55;;;14.00;99.90;;;;;;5014768;28;98906;-73
2022/11/13 13:15:10;;;;;;;9.77;8.75;;;14.00;99.90;;;;;;5013982;28;98648;-72
2022/11/13 13:18:11;;;;;;;10.48;8.70;;;14.00;99.90;;;;;;5015054;28;97955;-72
2022/11/13 13:20:56;;;;;;;9.85;8.82;;;14.10;99.90;;;;;;5012328;28;98459;-72
2022/11/13 13:23:52;;;;;;;10.40;9.35;;;14.10;99.90;;;;;;5012973;28;98462;-73
2022/11/13 13:26:45;;;;;;;9.80;8.82;;;14.20;99.90;;;;;;5012184;28;99194;-72
2022/11/13 13:29:32;;;;;;;9.77;8.40;;;14.20;99.90;;;;;;5013199;28;99482;-73
2022/11/13 13:32:47;;;;;;;9.52;8.52;;;14.20;99.90;;;;;;5013022;28;98493;-72
2022/11/13 13:35:50;;;;;;;9.30;8.50;;;14.30;99.90;;;;;;5012126;28;98484;-72
2022/11/13 13:38:45;;;;;;;9.75;8.75;;;14.30;99.90;;;;;;5014350;28;98471;-72
2022/11/13 13:42:11;;;;;;;9.48;8.43;;;14.30;99.90;;;;;;5011251;28;98769;-72
2022/11/13 13:45:49;;;;;;;9.30;8.40;;;14.40;99.90;;;;;;5013391;28;99060;-72
2022/11/13 13:48:39;;;;;;;9.73;8.82;;;14.40;99.90;;;;;;4997669;28;97871;-72
2022/11/13 13:51:27;;;;;;;9.15;8.25;;;14.30;99.90;;;;;;5014429;28;98539;-73
2022/11/13 13:54:18;;;;;;;10.32;8.30;;;14.30;99.90;;;;;;5012663;28;98391;-72
2022/11/13 13:57:03;;;;;;;9.38;8.48;;;14.40;99.90;;;;;;5013290;28;99186;-73
2022/11/13 13:59:50;;;;;;;9.57;8.45;;;14.30;99.90;;;;;;5014827;28;98553;-73
2022/11/13 14:02:45;;;;;;;9.43;8.18;;;14.30;99.90;;;;;;5011215;28;98543;-72
2022/11/13 14:05:35;;;;;;;10.50;8.27;;;14.40;99.90;;;;;;5013557;28;98684;-73
2022/11/13 14:08:24;;;;;;;8.75;7.72;;;14.40;99.90;;;;;;5010657;28;98489;-73
2022/11/13 14:11:25;;;;;;;9.15;8.20;;;14.40;99.90;;;;;;5013250;28;98558;-72
2022/11/13 14:14:21;;;;;;;9.02;8.15;;;14.50;99.90;;;;;;5014189;28;98488;-72
2022/11/13 14:17:09;;;;;;;8.50;7.70;;;14.50;99.90;;;;;;5012701;28;97982;-73
2022/11/13 14:19:59;;;;;;;8.35;7.30;;;14.40;99.90;;;;;;5012904;28;98574;-73
2022/11/13 14:22:48;;;;;;;9.45;8.55;;;14.40;99.90;;;;;;5014303;28;98555;-72
2022/11/13 14:25:37;;;;;;;9.73;8.80;;;14.40;99.90;;;;;;5008884;28;99457;-73
2022/11/13 14:28:32;;;;;;;8.70;7.88;;;14.30;99.90;;;;;;4999830;28;98781;-72
2022/11/13 14:31:17;;;;;;;10.77;8.10;;;14.40;99.90;;;;;;5004621;28;98691;-73
2022/11/13 14:34:14;;;;;;;9.77;8.57;;;14.30;99.90;;;;;;4991493;28;98489;-73
2022/11/13 14:37:45;;;;;;;9.85;8.85;;;14.30;99.90;;;;;;4991515;28;98503;-73
2022/11/13 14:40:32;;;;;;;9.90;8.55;;;14.30;99.90;;;;;;4992370;28;98801;-72